createdAt,value
2019-04-01T00:00:11.490Z,2.58
2019-04-01T00:05:20.017Z,2.28
2019-04-01T00:10:28.302Z,2.31
2019-04-01T00:15:36.200Z,2.33
2019-04-01T00:20:44.543Z,2.35
2019-04-01T00:25:52.319Z,2.40
2019-04-01T00:31:01.060Z,2.45
2019-04-01T00:36:09.375Z,2.41
2019-04-01T00:41:17.884Z,2.30
2019-04-01T00:46:26.549Z,2.25
2019-04-01T00:51:34.838Z,2.44
2019-04-01T00:56:43.387Z,2.16
2019-04-01T01:01:51.617Z,2.26
2019-04-01T01:07:00.777Z,2.32
2019-04-01T01:12:08.942Z,2.31
2019-04-01T01:17:17.798Z,2.21
2019-04-01T01:22:26.204Z,2.21
2019-04-01T01:27:34.610Z,2.41
2019-04-01T01:32:43.287Z,2.44
2019-04-01T01:37:51.543Z,2.37
2019-04-01T01:43:00.311Z,2.36
2019-04-01T01:48:08.989Z,2.53
2019-04-01T01:53:17.392Z,2.81
2019-04-01T01:58:26.130Z,2.34
2019-04-01T02:03:34.592Z,2.26
2019-04-01T02:08:42.943Z,2.47
2019-04-01T02:13:51.624Z,2.27
2019-04-01T02:19:00.277Z,2.69
2019-04-01T02:24:09.362Z,2.39
2019-04-01T02:29:17.563Z,2.59
2019-04-01T02:34:26.421Z,2.15
2019-04-01T02:39:34.829Z,2.56
2019-04-01T02:44:43.376Z,2.44
2019-04-01T02:49:52.234Z,2.39
2019-04-01T02:55:05.967Z,2.49
2019-04-01T03:00:08.568Z,2.54
2019-04-01T03:05:17.030Z,2.37
2019-04-01T03:10:26.224Z,2.37
2019-04-01T03:15:34.783Z,2.79
2019-04-01T03:20:43.306Z,2.57
2019-04-01T03:25:51.920Z,2.44
2019-04-01T03:31:00.474Z,2.43
2019-04-01T03:36:08.972Z,2.48
2019-04-01T03:41:17.414Z,2.72
2019-04-01T03:46:26.678Z,2.77
2019-04-01T03:51:35.537Z,2.53
2019-04-01T03:56:44.071Z,2.76
2019-04-01T04:01:52.354Z,2.48
2019-04-01T04:07:01.129Z,2.59
2019-04-01T04:12:09.646Z,2.70
2019-04-01T04:17:18.292Z,2.67
2019-04-01T04:22:26.829Z,2.63
2019-04-01T04:27:35.102Z,2.79
2019-04-01T04:32:43.991Z,2.62
2019-04-01T04:37:52.369Z,2.70
2019-04-01T04:43:00.655Z,2.73
2019-04-01T04:48:09.307Z,2.79
2019-04-01T04:53:17.764Z,2.98
2019-04-01T04:58:26.234Z,2.94
2019-04-01T05:03:35.001Z,2.99
2019-04-01T05:08:43.802Z,2.88
2019-04-01T05:13:52.535Z,2.80
2019-04-01T05:19:00.877Z,2.92
2019-04-01T05:24:10.603Z,3.10
2019-04-01T05:29:19.077Z,3.00
2019-04-01T05:34:27.972Z,3.26
2019-04-01T05:39:36.487Z,2.86
2019-04-01T05:44:45.134Z,3.02
2019-04-01T05:49:53.687Z,3.07
2019-04-01T05:55:02.305Z,2.71
2019-04-01T06:00:11.219Z,2.78
2019-04-01T06:05:19.865Z,2.76
2019-04-01T06:10:28.484Z,2.70
2019-04-01T06:15:36.798Z,2.62
2019-04-01T06:20:45.472Z,2.88
2019-04-01T06:25:54.213Z,2.77
2019-04-01T06:31:02.857Z,3.10
2019-04-01T06:36:11.359Z,3.00
2019-04-01T06:41:19.644Z,3.03
2019-04-01T06:46:28.290Z,3.17
2019-04-01T06:51:36.698Z,3.12
2019-04-01T06:56:45.129Z,3.16
2019-04-01T07:01:53.897Z,3.16
2019-04-01T07:07:02.537Z,3.34
2019-04-01T07:12:11.099Z,3.22
2019-04-01T07:17:19.477Z,3.50
2019-04-01T07:22:28.032Z,3.41
2019-04-01T07:27:36.530Z,3.64
2019-04-01T07:32:45.083Z,3.81
2019-04-01T07:37:53.674Z,4.00
2019-04-01T07:43:02.349Z,4.05
2019-04-01T07:48:12.582Z,4.07
2019-04-01T07:53:19.891Z,4.19
2019-04-01T07:58:28.077Z,4.24
2019-04-01T08:03:36.692Z,4.57
2019-04-01T08:08:46.376Z,4.97
2019-04-01T08:13:53.146Z,4.79
2019-04-01T08:19:01.566Z,4.82
2019-04-01T08:24:10.173Z,5.33
2019-04-01T08:29:29.370Z,5.08
2019-04-01T08:34:26.265Z,5.32
2019-04-01T08:39:34.823Z,5.22
2019-04-01T08:44:43.227Z,5.92
2019-04-01T08:49:51.755Z,6.09
2019-04-01T08:55:00.466Z,6.05
2019-04-01T09:00:09.138Z,6.43
2019-04-01T09:05:17.811Z,6.51
2019-04-01T09:10:26.191Z,6.94
2019-04-01T09:15:34.717Z,22.78
2019-04-01T09:20:43.730Z,7.21
2019-04-01T09:25:51.891Z,6.83
2019-04-01T09:31:00.686Z,6.84
2019-04-01T09:36:09.306Z,6.60
2019-04-01T09:41:17.953Z,6.68
2019-04-01T09:46:26.384Z,6.38
2019-04-01T09:51:48.039Z,6.68
2019-04-01T09:56:42.628Z,6.74
2019-04-01T10:01:51.365Z,6.62
2019-04-01T10:07:00.014Z,6.87
2019-04-01T10:12:08.389Z,6.34
2019-04-01T10:17:17.070Z,7.22
2019-04-01T10:22:25.322Z,7.32
2019-04-01T10:27:34.490Z,7.79
2019-04-01T10:32:42.495Z,7.99
2019-04-01T10:37:50.809Z,8.03
2019-04-01T10:42:59.551Z,8.11
2019-04-01T10:48:08.244Z,8.89
2019-04-01T10:53:16.469Z,8.21
2019-04-01T10:58:25.195Z,7.85
2019-04-01T11:03:34.096Z,8.16
2019-04-01T11:08:42.318Z,8.44
2019-04-01T11:13:52.133Z,8.46
2019-04-01T11:18:59.355Z,7.93
2019-04-01T11:24:07.835Z,8.37
2019-04-01T11:29:16.049Z,7.58
2019-04-01T11:34:25.095Z,8.77
2019-04-01T11:39:33.277Z,8.45
2019-04-01T11:44:41.950Z,8.06
2019-04-01T11:49:50.537Z,8.44
2019-04-01T11:54:58.918Z,8.16
2019-04-01T12:00:11.505Z,8.26
2019-04-01T12:05:15.906Z,7.82
2019-04-01T12:10:25.130Z,7.88
2019-04-01T12:15:33.266Z,8.41
2019-04-01T12:20:41.371Z,7.64
2019-04-01T12:25:50.081Z,8.30
2019-04-01T12:30:58.879Z,7.64
2019-04-01T12:36:07.308Z,7.91
2019-04-01T12:41:15.659Z,7.85
2019-04-01T12:46:24.339Z,7.81
2019-04-01T12:51:32.627Z,7.32
2019-04-01T12:56:41.240Z,7.34
2019-04-01T13:01:49.670Z,6.87
2019-04-01T13:06:58.172Z,6.52
2019-04-01T13:12:06.939Z,7.09
2019-04-01T13:17:15.379Z,7.19
2019-04-01T13:22:24.142Z,6.91
2019-04-01T13:27:32.878Z,6.88
2019-04-01T13:32:42.488Z,6.95
2019-04-01T13:37:50.944Z,7.50
2019-04-01T13:42:59.710Z,7.40
2019-04-01T13:48:08.191Z,7.52
2019-04-01T13:53:16.886Z,6.66
2019-04-01T13:58:26.439Z,7.13
2019-04-01T14:03:35.852Z,6.94
2019-04-01T14:08:51.290Z,7.03
2019-04-01T14:13:49.635Z,7.42
2019-04-01T14:18:58.560Z,8.41
2019-04-01T14:24:06.946Z,7.60
2019-04-01T14:29:16.685Z,7.21
2019-04-01T14:34:23.761Z,7.50
2019-04-01T14:39:32.828Z,7.71
2019-04-01T14:44:38.791Z,7.22
2019-04-01T14:49:48.254Z,7.39
2019-04-01T14:54:56.178Z,7.09
2019-04-01T15:00:04.679Z,7.88
2019-04-01T15:05:13.569Z,7.85
2019-04-01T15:10:21.996Z,7.53
2019-04-01T15:15:30.377Z,7.86
2019-04-01T15:20:39.268Z,8.51
2019-04-01T15:25:47.577Z,7.92
2019-04-01T15:30:56.497Z,6.96
2019-04-01T15:36:04.296Z,7.89
2019-04-01T15:41:11.031Z,8.98
2019-04-01T15:46:19.856Z,7.83
2019-04-01T15:51:28.410Z,8.09
2019-04-01T15:56:37.054Z,8.31
2019-04-01T16:01:45.251Z,8.04
2019-04-01T16:06:54.256Z,8.20
2019-04-01T16:12:04.466Z,7.99
2019-04-01T16:17:03.128Z,7.84
2019-04-01T16:22:11.742Z,7.97
2019-04-01T16:27:20.268Z,8.54
2019-04-01T16:32:30.234Z,8.45
2019-04-01T16:37:38.554Z,8.19
2019-04-01T16:42:48.119Z,8.52
2019-04-01T16:47:56.801Z,8.60
2019-04-01T16:53:05.421Z,8.38
2019-04-01T16:58:14.103Z,8.59
2019-04-01T17:03:22.140Z,7.82
2019-04-01T17:08:31.656Z,8.48
2019-04-01T17:13:40.641Z,8.47
2019-04-01T17:18:49.257Z,7.85
2019-04-01T17:23:59.278Z,7.77
2019-04-01T17:29:06.484Z,7.49
2019-04-01T17:34:15.830Z,7.89
2019-04-01T17:39:23.122Z,7.47
2019-04-01T17:44:32.181Z,7.42
2019-04-01T17:49:40.443Z,7.35
2019-04-01T17:54:49.183Z,6.95
2019-04-01T17:59:57.384Z,6.93
2019-04-01T18:05:06.474Z,7.42
2019-04-01T18:10:15.288Z,7.22
2019-04-01T18:15:24.033Z,7.21
2019-04-01T18:20:33.490Z,7.27
2019-04-01T18:25:41.696Z,7.54
2019-04-01T18:30:50.188Z,8.03
2019-04-01T18:35:58.474Z,16.01
2019-04-01T18:41:07.058Z,8.15
2019-04-01T18:46:15.704Z,18.19
2019-04-01T18:51:24.202Z,10.24
2019-04-01T18:56:33.087Z,7.32
2019-04-01T19:01:41.466Z,7.10
2019-04-01T19:06:49.968Z,7.86
2019-04-01T19:12:04.041Z,7.24
2019-04-01T19:17:06.090Z,7.49
2019-04-01T19:22:14.760Z,7.99
2019-04-01T19:27:23.259Z,7.95
2019-04-01T19:32:31.906Z,8.01
2019-04-01T19:37:40.435Z,8.37
2019-04-01T19:42:48.869Z,13.02
2019-04-01T19:47:58.087Z,9.45
2019-04-01T19:53:06.853Z,8.71
2019-04-01T19:58:15.646Z,8.89
2019-04-01T20:03:25.979Z,9.06
2019-04-01T20:08:23.551Z,10.08
2019-04-01T20:13:33.399Z,8.97
2019-04-01T20:18:42.072Z,9.05
2019-04-01T20:23:51.032Z,9.20
2019-04-01T20:29:00.331Z,8.88
2019-04-01T20:34:19.086Z,8.80
2019-04-01T20:39:17.623Z,8.89
2019-04-01T20:44:25.782Z,8.82
2019-04-01T20:49:34.432Z,8.87
2019-04-01T20:54:44.249Z,8.81
2019-04-01T20:59:51.695Z,8.69
2019-04-01T21:05:00.222Z,8.47
2019-04-01T21:10:09.228Z,8.91
2019-04-01T21:15:18.601Z,8.77
2019-04-01T21:20:27.299Z,8.44
2019-04-01T21:25:35.768Z,8.47
2019-04-01T21:30:44.415Z,8.20
2019-04-01T21:35:53.060Z,8.33
2019-04-01T21:41:01.713Z,8.72
2019-04-01T21:46:10.050Z,8.27
2019-04-01T21:51:18.428Z,8.28
2019-04-01T21:56:27.170Z,8.20
2019-04-01T22:01:35.812Z,8.51
2019-04-01T22:06:44.219Z,8.35
2019-04-01T22:11:52.895Z,8.02
2019-04-01T22:17:01.392Z,8.17
2019-04-01T22:22:09.858Z,7.93
2019-04-01T22:27:18.205Z,8.08
2019-04-01T22:32:27.092Z,7.78
2019-04-01T22:37:37.202Z,7.86
2019-04-01T22:42:43.068Z,7.68
2019-04-01T22:47:51.591Z,7.83
2019-04-01T22:53:00.239Z,7.65
2019-04-01T22:58:08.792Z,7.94
2019-04-01T23:03:17.412Z,7.52
2019-04-01T23:08:25.874Z,7.96
2019-04-01T23:13:34.609Z,8.06
2019-04-01T23:18:43.384Z,8.14
2019-04-01T23:23:51.784Z,7.89
2019-04-01T23:29:00.311Z,7.86
2019-04-01T23:34:09.168Z,7.75
2019-04-01T23:39:17.509Z,7.75
2019-04-01T23:44:26.250Z,8.19
2019-04-01T23:49:34.870Z,8.00
2019-04-01T23:54:43.543Z,7.77
2019-04-01T23:59:52.040Z,8.00
